Data for 09/23/2009

Time Sea-Level Adjusted Pressure Absolute Pressure Temperature Relative Humidity Dew Point   
(mb) (inHg) (mb) (inHg) (C) (F) (%) (C) (F)
00:05 1029 30.39 858 25.34 11.8 53.2 46 0.5 32.9
00:10 1029 30.39 858 25.34 12.6 54.6 45 1.2 34.1
00:15 1029 30.39 858 25.34 12.5 54.5 44 0.7 33.3
00:20 1029 30.39 858 25.34 12.9 55.2 43 0.7 33.3
00:25 1029 30.39 858 25.34 13 55.3 43 0.7 33.3
00:30 1029 30.39 858 25.34 13 55.3 44 1.1 34
00:35 1029 30.39 858 25.34 12.1 53.8 51 2.4 36.2
00:40 1029 30.39 858 25.34 11.1 52 51 1.5 34.7
00:45 1029 30.39 858 25.34 11.5 52.6 47 0.7 33.3
00:50 1029 30.39 858 25.34 12 53.6 47 1 33.8
00:55 1029 30.39 858 25.34 11.9 53.5 46 0.7 33.2
01:00 1029 30.39 858 25.34 12.1 53.7 46 1 33.8
01:05 1029 30.39 858 25.34 11.7 53.1 48 1.2 34.1
01:10 1029 30.39 858 25.34 11.3 52.4 50 1.2 34.2
01:15 1029 30.39 858 25.34 11.1 52 49 0.9 33.6
01:20 1029 30.39 858 25.34 11.2 52.2 49 0.9 33.7
01:25 1029 30.39 858 25.34 11.1 52 50 1 33.9
01:30 1029 30.39 858 25.34 11 51.9 50 1 33.8
01:35 1029 30.39 858 25.34 11.3 52.4 48 0.6 33.2
01:40 1029 30.39 858 25.34 12 53.6 45 0.5 32.9
01:45 1029 30.39 858 25.34 12.3 54.2 44 0.5 32.9
01:50 1029 30.39 858 25.34 12.6 54.6 44 0.8 33.4
01:55 1029 30.39 858 25.34 12.3 54.1 45 0.9 33.6
02:00 1029 30.39 858 25.34 11.9 53.4 47 1.1 34.1
02:05 1029 30.39 858 25.34 11.6 52.8 49 1.4 34.5
02:10 1029 30.39 858 25.34 11.4 52.6 49 1.1 34
02:15 1029 30.39 858 25.34 11.6 52.9 49 1.3 34.4
02:20 1029 30.39 858 25.34 11.3 52.3 51 1.5 34.6
02:25 1029 30.39 858 25.34 11.3 52.3 51 1.4 34.6
02:30 1029 30.39 858 25.34 11.3 52.3 52 1.8 35.2
02:35 1029 30.39 858 25.34 11 51.7 52 1.5 34.7
02:40 1029 30.39 858 25.34 11.1 52 51 1.3 34.4
02:45 1029 30.39 858 25.34 11.2 52.2 52 1.8 35.2
02:50 1029 30.39 858 25.34 11 51.7 53 1.7 35
02:55 1029 30.39 858 25.34 10.7 51.3 51 0.9 33.6
03:00 1029 30.39 858 25.34 11.3 52.3 47 0.3 32.5
03:05 1029 30.39 858 25.34 12.1 53.7 47 1.1 33.9
03:10 1029 30.39 858 25.34 11.5 52.7 48 1.1 33.9
03:15 1029 30.39 858 25.34 11.3 52.3 49 1.1 34
03:20 1029 30.39 858 25.34 11.1 51.9 49 0.9 33.6
03:25 1029 30.39 858 25.34 11.3 52.3 47 0.5 32.9
03:30 1029 30.39 858 25.34 11.8 53.2 46 0.7 33.3
03:35 1029 30.39 858 25.34 11.9 53.3 51 2.1 35.9
03:40 1029 30.39 858 25.34 10.9 51.5 53 1.8 35.3
03:45 1029 30.39 858 25.34 10.7 51.3 52 1.2 34.1
03:50 1029 30.39 858 25.34 10.9 51.7 50 0.9 33.6
03:55 1029 30.39 858 25.34 11.6 52.9 48 1.2 34.1
04:00 1029 30.39 858 25.34 11.8 53.3 49 1.6 34.8
04:05 1029 30.39 858 25.34 11.4 52.4 51 1.6 34.9
04:10 1029 30.39 858 25.34 11 51.8 54 2 35.7
04:15 1029 30.39 858 25.34 11 51.8 49 0.8 33.5
04:20 1029 30.39 858 25.34 11.4 52.6 49 1.1 34.1
04:25 1029 30.39 858 25.34 11.2 52.1 53 2 35.6
04:30 1029 30.39 858 25.34 10.6 51 52 1.1 34
04:35 1029 30.39 858 25.34 10.8 51.4 50 0.9 33.6
04:40 1029 30.39 858 25.34 11.1 51.9 52 1.5 34.7
04:45 1029 30.39 858 25.34 10.7 51.2 54 1.9 35.4
04:50 1029 30.39 858 25.34 10.2 50.3 54 1.2 34.2
04:55 1029 30.39 858 25.34 10.5 51 52 1.1 34
05:00 1029 30.39 858 25.34 10.6 51.1 52 1.3 34.3
05:05 1029 30.39 858 25.34 10.4 50.8 53 1.4 34.5
05:10 1029 30.39 858 25.34 10.3 50.5 54 1.5 34.6
05:15 1029 30.39 858 25.34 10 50 54 1.3 34.3
05:20 1029 30.39 858 25.34 10.3 50.5 54 1.3 34.3
05:25 1029 30.39 858 25.34 9.9 49.9 56 1.6 34.9
05:30 1029 30.39 858 25.34 9.8 49.7 54 1.1 33.9
05:35 1029 30.39 858 25.34 10.1 50.2 54 1.2 34.2
05:40 1029 30.39 858 25.34 10 50.1 55 1.5 34.7
05:45 1029 30.39 858 25.34 9.7 49.4 56 1.4 34.6
05:50 1029 30.39 858 25.34 9.4 49 57 1.4 34.5
05:55 1029 30.39 858 25.34 9.5 49 56 1.1 34
06:00 1029 30.39 858 25.34 9.8 49.6 54 0.9 33.6
06:05 1029 30.39 858 25.34 10.1 50.1 53 1 33.9
06:10 1029 30.39 858 25.34 10.2 50.3 54 1.2 34.2
06:15 1029 30.39 858 25.34 10.1 50.1 54 1.2 34.1
06:20 1029 30.39 858 25.34 10 50.1 55 1.4 34.5
06:25 1029 30.39 858 25.34 10 50 55 1.3 34.4
06:30 1029 30.39 858 25.34 10.1 50.2 54 1.4 34.4
06:35 1029 30.39 858 25.34 10.2 50.4 53 1.2 34.1
06:40 1029 30.39 858 25.34 10.5 50.8 53 1.3 34.3
06:45 1029 30.39 858 25.34 10.5 51 53 1.5 34.7
06:50 1029 30.39 858 25.34 10.2 50.3 56 1.8 35.3
06:55 1029 30.39 858 25.34 9.8 49.7 58 2.1 35.7
07:00 1029 30.39 858 25.34 10.3 50.5 54 1.5 34.7
07:05 1029 30.39 858 25.34 9.9 49.9 59 2.2 36
07:10 1029 30.39 858 25.34 9 48.2 63 2.4 36.3
07:15 1029 30.39 858 25.34 8.9 47.9 62 2 35.6
07:20 1029 30.39 858 25.34 9.5 49 59 1.9 35.4
07:25 1029 30.39 858 25.34 9.5 49.1 60 2.2 36
07:30 1029 30.39 858 25.34 9.6 49.2 58 1.8 35.3
07:35 1029 30.39 858 25.34 10.1 50.2 55 1.4 34.5
07:40 1029 30.39 858 25.34 10.4 50.7 54 1.7 35
07:45 1029 30.39 858 25.34 10.4 50.8 54 1.5 34.8
07:50 1029 30.39 858 25.34 10.6 51 54 1.6 34.9
07:55 1029 30.39 858 25.34 10.5 51 54 1.7 35.1
08:00 1029 30.39 858 25.34 10.5 50.9 54 1.7 35.1
08:05 1029 30.39 858 25.34 10.5 50.9 55 1.9 35.3
08:10 1029 30.39 858 25.34 10.1 50.2 55 1.5 34.8
08:15 1029 30.39 858 25.34 10.5 51 55 1.8 35.3
08:20 1029 30.39 858 25.34 11.2 52.1 50 1.1 34.1
08:25 1029 30.39 858 25.34 11.7 53 52 2.3 36.2
08:30 1029 30.39 858 25.34 11.7 53 48 1.2 34.2
08:35 1029 30.39 858 25.34 12.1 53.8 48 1.5 34.7
08:40 1029 30.39 858 25.34 12.4 54.3 47 1.5 34.8
08:45 1029 30.39 859 25.37 12.8 55 47 1.7 35
08:50 1029 30.39 859 25.37 12.9 55.2 46 1.7 35.1
08:55 1029 30.39 859 25.37 13.5 56.3 45 2 35.6
09:00 1029 30.39 859 25.37 14.4 57.8 43 2.1 35.8
09:05 1029 30.39 859 25.37 14.9 58.8 42 2.2 35.9
09:10 1029 30.39 859 25.37 15.3 59.5 42 2.5 36.5
09:15 1029 30.39 859 25.37 15.5 59.8 41 2.5 36.4
09:20 1029 30.39 859 25.37 15.6 60 40 2 35.7
09:25 1029 30.39 859 25.37 15.7 60.2 39 2 35.6
09:30 1029 30.39 859 25.37 15.8 60.4 39 2.1 35.8
09:35 1029 30.39 859 25.37 15.9 60.7 40 2.5 36.5
09:40 1029 30.39 858 25.34 16.1 61 40 2.5 36.5
09:45 1029 30.39 858 25.34 15.9 60.6 39 2 35.6
09:50 1029 30.39 859 25.37 16.6 61.9 37 2.1 35.8
09:55 1029 30.39 859 25.37 17 62.7 36 2.1 35.8
10:00 1029 30.39 859 25.37 17.3 63.1 34 1.3 34.4
10:05 1029 30.39 859 25.37 17.6 63.6 35 2.2 35.9
10:10 1029 30.39 858 25.34 17 62.7 37 2.4 36.3
10:15 1029 30.39 858 25.34 17.3 63.2 36 2.1 35.7
10:20 1029 30.39 858 25.34 18 64.3 34 2 35.7
10:25 1029 30.39 858 25.34 18.4 65.1 34 2.2 36
10:30 1029 30.39 858 25.34 18.3 65 35 2.7 36.8
10:35 1029 30.39 858 25.34 18.5 65.3 33 2.1 35.7
10:40 1029 30.39 858 25.34 19.1 66.4 32 2 35.5
10:45 1029 30.39 858 25.34 19 66.1 32 2.2 36
10:50 1029 30.39 858 25.34 19.1 66.4 32 2.4 36.3
10:55 1029 30.39 858 25.34 19.3 66.8 32 2.3 36.1
11:00 1029 30.39 858 25.34 18.8 65.8 33 2.4 36.3
11:05 1029 30.39 858 25.34 19.3 66.7 32 2.4 36.3
11:10 1029 30.39 858 25.34 19.6 67.3 32 2.4 36.3
11:15 1029 30.39 858 25.34 20.3 68.5 30 2.4 36.3
11:20 1029 30.39 858 25.34 20.7 69.3 30 2.6 36.7
11:25 1029 30.39 858 25.34 21.2 70.2 29 2.6 36.7
11:30 1029 30.39 858 25.34 21.5 70.6 30 3.4 38.2
11:35 1029 30.39 858 25.34 20.7 69.2 30 2.6 36.6
11:40 1029 30.39 858 25.34 19.6 67.3 31 2.1 35.8
11:45 1029 30.39 858 25.34 20.4 68.7 29 1.8 35.2
11:50 1029 30.39 858 25.34 21.5 70.6 28 2.2 35.9
11:55 1029 30.39 858 25.34 21.9 71.4 27 2.2 36
12:00 1028 30.36 858 25.34 21.2 70.2 29 2.5 36.4
12:05 1028 30.36 858 25.34 21.4 70.6 28 2.4 36.4
12:10 1028 30.36 858 25.34 22 71.6 28 2.7 36.8
12:15 1028 30.36 858 25.34 22.1 71.8 26 2 35.7
12:20 1028 30.36 858 25.34 22.8 73 25 2.1 35.8
12:25 1028 30.36 857 25.31 23.2 73.7 26 2.8 37
12:30 1028 30.36 857 25.31 23.2 73.8 26 2.9 37.2
12:35 1028 30.36 857 25.31 22.9 73.3 26 2.6 36.7
12:40 1028 30.36 857 25.31 22.5 72.6 26 2.4 36.3
12:45 1028 30.36 857 25.31 23 73.4 24 1.7 35
12:50 1028 30.36 857 25.31 23.3 74 25 2.6 36.6
12:55 1028 30.36 857 25.31 22.9 73.3 25 2.1 35.7
13:00 1028 30.36 857 25.31 23.8 74.8 25 2.7 36.9
13:05 1028 30.36 857 25.31 24 75.2 26 3.3 37.9
13:10 1028 30.36 857 25.31 23.9 75 26 3.3 38
13:15 1028 30.36 857 25.31 23.3 74 26 2.8 37.1
13:20 1028 30.36 857 25.31 24.3 75.8 24 2.9 37.2
13:25 1028 30.36 857 25.31 24.4 75.9 24 2.5 36.5
13:30 1027 30.33 857 25.31 24.7 76.4 24 2.9 37.2
13:35 1027 30.33 857 25.31 24.9 76.8 24 3.1 37.5
13:40 1027 30.33 857 25.31 25.2 77.3 22 2.4 36.3
13:45 1027 30.33 856 25.28 25.1 77.2 22 2.2 35.9
13:50 1027 30.33 856 25.28 25.2 77.4 22 2.5 36.5
13:55 1027 30.33 856 25.28 25.5 77.9 22 2.8 37
14:00 1027 30.33 856 25.28 24.9 76.7 23 2.8 37
14:05 1027 30.33 856 25.28 25.2 77.4 23 2.7 36.9
14:10 1027 30.33 856 25.28 25.8 78.4 21 2.3 36.1
14:15 1027 30.33 856 25.28 26.1 78.9 22 2.8 37
14:20 1027 30.33 856 25.28 25.1 77.1 23 2.6 36.6
14:25 1027 30.33 856 25.28 24.6 76.3 23 2.5 36.5
14:30 1027 30.33 856 25.28 25.6 78.1 21 1.7 35.1
14:35 1027 30.33 856 25.28 26.2 79.1 21 2.5 36.5
14:40 1027 30.33 856 25.28 26.8 80.3 19 1.9 35.4
14:45 1027 30.33 856 25.28 26.6 79.9 20 1.8 35.3
14:50 1027 30.33 856 25.28 26.8 80.2 20 1.9 35.4
14:55 1026 30.3 856 25.28 26.2 79.2 20 2.1 35.8
15:00 1026 30.3 856 25.28 26.4 79.4 20 1.7 35
15:05 1026 30.3 856 25.28 27.1 80.7 19 1.6 34.9
15:10 1026 30.3 855 25.25 27.2 80.9 20 2.3 36.2
15:15 1026 30.3 855 25.25 27 80.6 19 1.5 34.7
15:20 1026 30.3 855 25.25 27.1 80.7 19 1.7 35
15:25 1026 30.3 855 25.25 27.1 80.7 19 1.8 35.3
15:30 1026 30.3 855 25.25 27.2 81 19 1.9 35.4
15:35 1026 30.3 855 25.25 27.3 81.2 19 1.8 35.2
15:40 1026 30.3 855 25.25 27.2 80.9 19 2.2 35.9
15:45 1026 30.3 855 25.25 27.2 80.9 19 1.9 35.4
15:50 1026 30.3 855 25.25 26.2 79.2 20 1.9 35.3
15:55 1026 30.3 855 25.25 26.4 79.5 20 1.8 35.3
16:00 1026 30.3 855 25.25 26.6 80 22 3.3 37.9
16:05 1026 30.3 855 25.25 26 78.8 21 2 35.6
16:10 1026 30.3 855 25.25 26.3 79.3 20 2.1 35.8
16:15 1026 30.3 855 25.25 25.9 78.6 21 2.1 35.7
16:20 1026 30.3 855 25.25 26.4 79.5 20 1.7 35.1
16:25 1026 30.3 855 25.25 26.1 79 21 2.5 36.6
16:30 1026 30.3 855 25.25 26.4 79.4 19 1.5 34.7
16:35 1026 30.3 855 25.25 27.3 81.1 19 2.1 35.7
16:40 1026 30.3 855 25.25 27.4 81.3 19 2.1 35.8
16:45 1026 30.3 855 25.25 27 80.7 20 2.1 35.8
16:50 1026 30.3 855 25.25 26.6 79.9 20 2 35.6
16:55 1025 30.27 855 25.25 27 80.6 19 1.6 34.9
17:00 1025 30.27 855 25.25 27.6 81.6 18 1.7 35.1
17:05 1025 30.27 855 25.25 27.5 81.4 19 2 35.7
17:10 1025 30.27 855 25.25 27.1 80.9 19 2.2 35.9
17:15 1025 30.27 854 25.22 26.4 79.6 19 1.5 34.8
17:20 1025 30.27 854 25.22 26.2 79.2 21 2.5 36.4
17:25 1025 30.27 854 25.22 26 78.8 21 2 35.6
17:30 1025 30.27 854 25.22 26 78.8 20 1.7 35.1
17:35 1025 30.27 854 25.22 26.1 79 20 1.4 34.5
17:40 1025 30.27 854 25.22 26.7 80.1 20 1.9 35.3
17:45 1025 30.27 854 25.22 26.9 80.5 20 2.2 36
17:50 1025 30.27 854 25.22 27 80.5 20 2.7 36.8
17:55 1025 30.27 854 25.22 26.8 80.2 21 2.8 37
18:00 1025 30.27 854 25.22 26.5 79.6 21 2.6 36.7
18:05 1025 30.27 854 25.22 26.7 80.1 21 2.9 37.2
18:10 1025 30.27 854 25.22 26.9 80.3 20 2.3 36.2
18:15 1025 30.27 854 25.22 26.7 80.1 20 2 35.6
18:20 1025 30.27 854 25.22 26.6 79.9 20 2.2 36
18:25 1025 30.27 854 25.22 26.4 79.5 22 3.4 38.2
18:30 1025 30.27 854 25.22 26.3 79.3 22 2.9 37.1
18:35 1025 30.27 854 25.22 25.7 78.2 23 3.1 37.6
18:40 1025 30.27 854 25.22 25 77 23 2.6 36.7
18:45 1025 30.27 854 25.22 24.6 76.3 22 1.6 34.9
18:50 1025 30.27 854 25.22 24.4 75.9 23 2.1 35.8
18:55 1025 30.27 854 25.22 24.3 75.7 22 1.4 34.5
19:00 1025 30.27 854 25.22 24.2 75.6 22 1.6 34.9
19:05 1025 30.27 854 25.22 24.1 75.4 23 2.1 35.8
19:10 1025 30.27 854 25.22 24.1 75.3 23 1.9 35.5
19:15 1025 30.27 854 25.22 23.9 75 25 3 37.3
19:20 1025 30.27 854 25.22 22.9 73.3 35 6.8 44.2
19:25 1025 30.27 854 25.22 21.9 71.4 38 7.2 45
19:30 1025 30.27 854 25.22 21.5 70.6 39 7 44.6
19:35 1025 30.27 854 25.22 21 69.8 38 6.5 43.7
19:40 1025 30.27 854 25.22 20.6 69 40 6.7 44
19:45 1025 30.27 854 25.22 19.8 67.7 41 6.2 43.2
19:50 1025 30.27 854 25.22 19.4 67 44 6.9 44.5
19:55 1025 30.27 854 25.22 18.9 65.9 43 6 42.9
20:00 1025 30.27 854 25.22 18.8 65.8 41 5.6 42
20:05 1025 30.27 854 25.22 18.7 65.6 41 5.1 41.3
20:10 1025 30.27 854 25.22 18.3 64.9 42 5.2 41.3
20:15 1025 30.27 854 25.22 17.8 64.1 42 5 41
20:20 1025 30.27 854 25.22 17.7 63.8 41 4.3 39.8
20:25 1025 30.27 854 25.22 17.6 63.7 42 4.5 40.1
20:30 1025 30.27 854 25.22 17.3 63.1 42 4.4 40
20:35 1025 30.27 854 25.22 17 62.5 42 3.9 39.1
20:40 1025 30.27 854 25.22 16.9 62.3 41 3.8 38.8
20:45 1025 30.27 854 25.22 16.8 62.2 43 4.2 39.5
20:50 1025 30.27 854 25.22 16.7 62.1 40 3.3 38
20:55 1025 30.27 854 25.22 16.9 62.3 39 2.8 37.1
21:00 1025 30.27 854 25.22 17 62.6 39 2.9 37.2
21:05 1025 30.27 854 25.22 17.1 62.8 37 2.3 36.1
21:10 1025 30.27 854 25.22 16.8 62.3 40 3.1 37.6
21:15 1025 30.27 854 25.22 16.5 61.7 36 1.6 34.9
21:20 1025 30.27 854 25.22 16.2 61.2 37 1.7 35.1
21:25 1025 30.27 854 25.22 16.1 60.9 37 1.3 34.4
21:30 1025 30.27 854 25.22 15.9 60.6 37 1.3 34.4
21:35 1025 30.27 854 25.22 15.9 60.6 37 1.3 34.3
21:40 1025 30.27 854 25.22 16.2 61.1 36 1.2 34.1
21:45 1025 30.27 854 25.22 16.1 61 35 0.9 33.6
21:50 1025 30.27 854 25.22 15.9 60.6 36 1.1 34
21:55 1025 30.27 854 25.22 15.6 60 37 0.9 33.6
22:00 1025 30.27 854 25.22 15.4 59.7 37 0.7 33.3
22:05 1025 30.27 854 25.22 15.5 59.8 37 0.8 33.4
22:10 1025 30.27 854 25.22 15.6 60 36 0.7 33.3
22:15 1025 30.27 854 25.22 15.7 60.3 36 0.7 33.3
22:20 1025 30.27 854 25.22 15.7 60.3 35 0.5 33
22:25 1025 30.27 854 25.22 15.8 60.4 35 0.6 33.1
22:30 1025 30.27 854 25.22 15.7 60.2 35 0.4 32.7
22:35 1025 30.27 854 25.22 15.5 59.9 35 0.3 32.5
22:40 1025 30.27 854 25.22 15.4 59.7 34 -0.1 31.8
22:45 1025 30.27 854 25.22 15.5 59.8 34 -0.3 31.4
22:50 1025 30.27 854 25.22 15.7 60.3 33 -0.2 31.6
22:55 1025 30.27 854 25.22 15.9 60.6 32 -0.5 31
23:00 1025 30.27 854 25.22 15.8 60.4 32 -0.6 30.8
23:05 1025 30.27 854 25.22 15.7 60.3 32 -0.6 30.9
23:10 1025 30.27 854 25.22 15.6 60 33 -0.5 31.1
23:15 1025 30.27 854 25.22 15.5 59.9 32 -0.8 30.5
23:20 1025 30.27 854 25.22 15.3 59.5 34 -0.6 31
23:25 1025 30.27 854 25.22 14.6 58.3 34 -0.8 30.6
23:30 1025 30.27 854 25.22 14.4 58 35 -0.7 30.7
23:35 1025 30.27 854 25.22 14.5 58 34 -1 30.2
23:40 1024 30.24 854 25.22 14.7 58.4 33 -1.5 29.4
23:45 1024 30.24 854 25.22 14.8 58.7 32 -1.4 29.4
23:50 1024 30.24 854 25.22 15.2 59.3 32 -1.3 29.7
23:55 1024 30.24 854 25.22 15.1 59.2 32 -1.4 29.5
24:00 1024 30.24 854 25.22 15 58.9 32 -1.6 29.2